Time;durP1;ratioP1;P1;durP2;ratioP2;P2;SDS_P1;SDS_P2;PMS_P1;PMS_P2;Temp;Humidity;BMP_temperature;BMP_pressure;BME280_temperature;BME280_humidity;BME280_pressure;Samples;Min_cycle;Max_cycle;Signal;HPM_P1;HPM_P2
2023/10/16 00:00:40;;;;;;;7.88;3.40;;;7.80;99.90;;;;;;5051078;28;20409;-73
2023/10/16 00:03:07;;;;;;;7.05;3.40;;;7.70;99.90;;;;;;5050528;28;20060;-73
2023/10/16 00:05:51;;;;;;;8.48;3.85;;;7.70;99.90;;;;;;5050971;28;20090;-73
2023/10/16 00:08:16;;;;;;;7.50;3.72;;;7.80;99.90;;;;;;5050480;28;20040;-73
2023/10/16 00:10:57;;;;;;;5.97;3.83;;;7.70;99.90;;;;;;5050907;28;20025;-73
2023/10/16 00:13:28;;;;;;;6.75;3.75;;;7.70;99.90;;;;;;5050398;28;20078;-72
2023/10/16 00:15:58;;;;;;;5.32;3.70;;;7.80;99.90;;;;;;5051039;28;20028;-73
2023/10/16 00:18:25;;;;;;;6.03;3.60;;;7.80;99.90;;;;;;5050225;28;20070;-72
2023/10/16 00:20:52;;;;;;;7.63;4.00;;;7.80;99.90;;;;;;5049465;28;20040;-72
2023/10/16 00:23:30;;;;;;;9.77;3.83;;;7.80;99.90;;;;;;5050121;28;20023;-73
2023/10/16 00:25:58;;;;;;;9.77;3.53;;;7.80;99.90;;;;;;5050890;28;20025;-73
2023/10/16 00:28:24;;;;;;;8.55;4.32;;;7.80;99.90;;;;;;5050447;28;20040;-73
2023/10/16 00:30:51;;;;;;;8.57;4.20;;;7.80;99.90;;;;;;5050627;28;20481;-73
2023/10/16 00:33:16;;;;;;;11.23;4.53;;;7.80;99.90;;;;;;5048685;28;20112;-73
2023/10/16 00:35:45;;;;;;;7.65;4.05;;;7.70;99.90;;;;;;5050522;28;20159;-73
2023/10/16 00:38:14;;;;;;;9.82;3.78;;;7.70;99.90;;;;;;5048438;28;20104;-72
2023/10/16 00:40:44;;;;;;;8.88;4.35;;;7.70;99.90;;;;;;5050495;28;20029;-73
2023/10/16 00:43:12;;;;;;;8.17;4.00;;;7.70;99.90;;;;;;5048664;28;20044;-73
2023/10/16 00:45:48;;;;;;;7.97;4.25;;;7.70;99.90;;;;;;5050487;28;20646;-73
2023/10/16 00:48:18;;;;;;;7.40;4.22;;;7.70;99.90;;;;;;5049850;28;20052;-73
2023/10/16 00:50:50;;;;;;;10.57;4.32;;;7.70;99.90;;;;;;5049309;28;20021;-73
2023/10/16 00:53:21;;;;;;;10.05;4.80;;;7.80;99.90;;;;;;5049890;28;20037;-73
2023/10/16 00:55:48;;;;;;;7.95;3.60;;;7.80;99.90;;;;;;5050504;28;20186;-73
2023/10/16 00:58:14;;;;;;;9.57;5.30;;;7.80;99.90;;;;;;5049695;28;20032;-73
2023/10/16 01:00:45;;;;;;;9.80;4.18;;;7.80;99.90;;;;;;5050163;28;20021;-73
2023/10/16 01:03:11;;;;;;;12.27;4.82;;;7.80;99.90;;;;;;5051756;28;20029;-73
2023/10/16 01:05:42;;;;;;;13.10;5.03;;;7.80;99.90;;;;;;5054501;28;20031;-73
2023/10/16 01:08:10;;;;;;;15.95;4.78;;;7.80;99.90;;;;;;5052534;28;20055;-73
2023/10/16 01:10:43;;;;;;;10.10;4.63;;;7.80;99.90;;;;;;5054257;28;20579;-73
2023/10/16 01:13:12;;;;;;;9.70;4.63;;;7.80;99.90;;;;;;5053651;28;20024;-73
2023/10/16 01:15:43;;;;;;;7.40;4.35;;;7.80;99.90;;;;;;5054074;28;20524;-73
2023/10/16 01:18:11;;;;;;;7.63;4.25;;;7.80;99.90;;;;;;5053833;28;20100;-72
2023/10/16 01:20:38;;;;;;;6.63;4.00;;;7.80;99.90;;;;;;5052708;28;20044;-73
2023/10/16 01:23:07;;;;;;;9.45;4.20;;;7.80;99.90;;;;;;5052194;28;20044;-73
2023/10/16 01:25:32;;;;;;;7.50;4.47;;;7.80;99.90;;;;;;5054146;28;20397;-73
2023/10/16 01:27:58;;;;;;;14.02;5.30;;;7.80;99.90;;;;;;5053270;28;20021;-72
2023/10/16 01:30:24;;;;;;;8.60;4.72;;;7.80;99.90;;;;;;5054111;28;20025;-73
2023/10/16 01:32:50;;;;;;;10.73;5.03;;;7.80;99.90;;;;;;5053388;28;20028;-72
2023/10/16 01:35:18;;;;;;;7.65;4.57;;;7.70;99.90;;;;;;5053947;28;20053;-72
2023/10/16 01:37:46;;;;;;;7.95;3.67;;;7.70;99.90;;;;;;5053303;28;20078;-72
2023/10/16 01:40:25;;;;;;;11.23;4.63;;;7.70;99.90;;;;;;5053817;28;20009;-73
2023/10/16 01:42:54;;;;;;;8.93;3.55;;;7.70;99.90;;;;;;5052918;28;20525;-73
2023/10/16 01:45:23;;;;;;;9.32;4.80;;;7.70;99.90;;;;;;5053759;28;20031;-73
2023/10/16 01:47:49;;;;;;;7.90;4.40;;;7.70;99.90;;;;;;5053016;28;20025;-73
2023/10/16 01:50:23;;;;;;;7.82;4.45;;;7.70;99.90;;;;;;5053797;28;20511;-73
2023/10/16 01:52:49;;;;;;;9.52;4.32;;;7.70;99.90;;;;;;5053000;28;20094;-73
2023/10/16 01:55:19;;;;;;;10.13;4.63;;;7.70;99.90;;;;;;5053390;28;20563;-72
2023/10/16 01:57:45;;;;;;;8.88;4.53;;;7.70;99.90;;;;;;5051643;28;20140;-73
2023/10/16 02:00:24;;;;;;;8.82;4.43;;;7.70;99.90;;;;;;5053390;28;20533;-72
2023/10/16 02:02:49;;;;;;;11.35;4.70;;;7.70;99.90;;;;;;5052831;28;20025;-73
2023/10/16 02:05:15;;;;;;;10.43;4.72;;;7.70;99.90;;;;;;5053319;28;20035;-72
2023/10/16 02:07:45;;;;;;;11.23;4.63;;;7.70;99.90;;;;;;5052533;28;20478;-73
2023/10/16 02:10:13;;;;;;;12.93;4.20;;;7.70;99.90;;;;;;5051806;28;20429;-72
2023/10/16 02:12:39;;;;;;;8.77;4.35;;;7.80;99.90;;;;;;5052337;28;20041;-72
2023/10/16 02:15:07;;;;;;;7.78;3.55;;;7.70;99.90;;;;;;5052245;28;20021;-73
2023/10/16 02:17:37;;;;;;;7.80;3.97;;;7.80;99.90;;;;;;5051007;28;20021;-73
2023/10/16 02:20:11;;;;;;;7.68;3.63;;;7.80;99.90;;;;;;5053096;28;20025;-73
2023/10/16 02:22:37;;;;;;;9.50;4.90;;;7.80;99.90;;;;;;5052265;28;20055;-73
2023/10/16 02:25:08;;;;;;;9.57;4.07;;;7.80;99.90;;;;;;5052996;28;20021;-73
2023/10/16 02:27:35;;;;;;;9.30;4.20;;;7.90;99.90;;;;;;5052465;28;20028;-73
2023/10/16 02:32:45;;;;;;;12.63;4.85;;;7.90;99.90;;;;;;5052516;28;20040;-73
2023/10/16 02:35:13;;;;;;;8.23;4.45;;;7.90;99.90;;;;;;5052928;28;20025;-73
2023/10/16 02:37:40;;;;;;;13.55;4.68;;;7.90;99.90;;;;;;5052181;28;20047;-73
2023/10/16 02:40:10;;;;;;;11.75;4.75;;;7.80;99.90;;;;;;5052685;28;20155;-73
2023/10/16 02:42:38;;;;;;;9.57;4.20;;;7.80;99.90;;;;;;5051814;28;20041;-73
2023/10/16 02:45:17;;;;;;;10.43;4.78;;;7.70;99.90;;;;;;5052481;28;20398;-72
2023/10/16 02:47:43;;;;;;;9.57;4.47;;;7.80;99.90;;;;;;5052121;28;20101;-72
2023/10/16 02:50:09;;;;;;;10.85;4.97;;;7.80;99.90;;;;;;5051156;28;20040;-73
2023/10/16 02:52:35;;;;;;;13.40;4.30;;;7.80;99.90;;;;;;5051784;28;20443;-73
2023/10/16 02:55:01;;;;;;;7.70;4.18;;;7.80;99.90;;;;;;5052033;28;20033;-72
2023/10/16 02:57:27;;;;;;;9.73;4.18;;;7.90;99.90;;;;;;5038258;28;20025;-74
2023/10/16 02:59:53;;;;;;;8.32;4.30;;;7.90;99.90;;;;;;5052148;28;20046;-72
2023/10/16 03:02:22;;;;;;;11.02;4.25;;;7.90;99.90;;;;;;5052021;28;20494;-72
2023/10/16 03:05:10;;;;;;;10.73;4.88;;;8.00;99.90;;;;;;5051906;28;20482;-72
2023/10/16 03:07:34;;;;;;;9.48;5.20;;;8.00;99.90;;;;;;5051325;28;20119;-73
2023/10/16 03:10:00;;;;;;;7.38;3.92;;;8.00;99.90;;;;;;5050827;28;20036;-73
2023/10/16 03:12:27;;;;;;;8.38;4.10;;;8.00;99.90;;;;;;5051472;28;20551;-72
2023/10/16 03:14:58;;;;;;;9.30;4.35;;;8.00;99.90;;;;;;5040710;28;20494;-72
2023/10/16 03:17:33;;;;;;;;;;;8.00;99.90;;;;;;5032071;28;20470;-73
2023/10/16 03:20:01;;;;;;;10.93;4.50;;;8.00;99.90;;;;;;5030806;28;20349;-73
2023/10/16 03:22:28;;;;;;;10.65;4.68;;;7.90;99.90;;;;;;5031999;28;20105;-72
2023/10/16 03:24:59;;;;;;;10.38;4.32;;;7.90;99.90;;;;;;5031477;28;20049;-73
2023/10/16 03:27:28;;;;;;;12.40;4.32;;;7.90;99.90;;;;;;5031770;28;20047;-73
2023/10/16 03:29:57;;;;;;;8.80;4.00;;;7.80;99.90;;;;;;5039029;28;20385;-73
2023/10/16 03:32:23;;;;;;;7.63;3.50;;;7.80;99.90;;;;;;5051322;28;20029;-73
2023/10/16 03:34:51;;;;;;;6.50;3.58;;;7.80;99.90;;;;;;5051383;28;20055;-72
2023/10/16 03:37:19;;;;;;;10.60;4.68;;;7.80;99.90;;;;;;5051249;28;20029;-72
2023/10/16 03:39:46;;;;;;;11.10;4.60;;;7.80;99.90;;;;;;5051351;28;20047;-72
2023/10/16 03:42:17;;;;;;;12.02;4.57;;;7.80;99.90;;;;;;5051288;28;20044;-72
2023/10/16 03:44:43;;;;;;;10.18;4.75;;;7.70;99.90;;;;;;5051199;28;20029;-72
2023/10/16 03:47:10;;;;;;;7.80;4.70;;;7.70;99.90;;;;;;5051169;28;20104;-73
2023/10/16 03:49:36;;;;;;;8.45;4.05;;;7.70;99.90;;;;;;5049576;28;20040;-72
2023/10/16 03:52:02;;;;;;;7.47;4.35;;;7.60;99.90;;;;;;5051100;28;20025;-72
2023/10/16 03:54:31;;;;;;;6.63;4.25;;;7.60;99.90;;;;;;5051293;28;20033;-73
2023/10/16 03:57:00;;;;;;;10.55;4.40;;;7.70;99.90;;;;;;5051427;28;20029;-73
2023/10/16 03:59:29;;;;;;;6.78;4.13;;;7.70;99.90;;;;;;5050900;28;20021;-73
2023/10/16 04:01:56;;;;;;;7.50;4.50;;;7.70;99.90;;;;;;5049905;28;20017;-72
2023/10/16 04:04:26;;;;;;;11.02;4.30;;;7.80;99.90;;;;;;5049374;28;20108;-72
2023/10/16 04:07:01;;;;;;;10.43;4.90;;;7.80;99.90;;;;;;5051096;28;20021;-73
2023/10/16 04:09:32;;;;;;;11.20;4.63;;;7.80;99.90;;;;;;5050710;28;20108;-73
2023/10/16 04:12:06;;;;;;;13.05;4.80;;;7.90;99.90;;;;;;5051196;28;20033;-72
2023/10/16 04:14:55;;;;;;;9.43;4.22;;;7.90;99.90;;;;;;5037613;28;20029;-72
2023/10/16 04:17:24;;;;;;;9.15;4.90;;;7.90;99.90;;;;;;5050754;28;20434;-73
2023/10/16 04:19:53;;;;;;;8.65;4.47;;;8.00;99.90;;;;;;5050866;28;20025;-72
2023/10/16 04:22:25;;;;;;;9.23;4.43;;;8.00;99.90;;;;;;5050900;28;20071;-72
2023/10/16 04:24:59;;;;;;;10.80;4.70;;;8.10;99.90;;;;;;5050777;28;20102;-72
2023/10/16 04:27:33;;;;;;;8.30;4.25;;;8.10;99.90;;;;;;5050383;28;20039;-73
2023/10/16 04:37:56;;;;;;;7.15;4.60;;;8.20;99.90;;;;;;5049587;28;20086;-72
2023/10/16 04:46:16;;;;;;;11.40;4.70;;;8.20;99.90;;;;;;5030641;28;20060;-73
2023/10/16 04:48:48;;;;;;;11.95;5.00;;;8.10;99.90;;;;;;5049829;28;20021;-72
2023/10/16 04:51:22;;;;;;;10.25;5.38;;;8.10;99.90;;;;;;5050315;28;20021;-72
2023/10/16 04:54:13;;;;;;;11.63;5.07;;;8.00;99.90;;;;;;5049727;28;20036;-72
2023/10/16 04:56:57;;;;;;;13.85;5.65;;;8.10;99.90;;;;;;5050484;28;20094;-73
2023/10/16 04:59:59;;;;;;;11.18;5.22;;;8.10;99.90;;;;;;5049785;28;20021;-72
2023/10/16 05:02:51;;;;;;;7.60;4.68;;;8.00;99.90;;;;;;5049912;28;20029;-73
2023/10/16 05:05:45;;;;;;;9.45;4.93;;;8.00;99.90;;;;;;5049982;28;20509;-73
2023/10/16 05:11:24;;;;;;;9.77;5.18;;;8.00;99.90;;;;;;5050463;28;20039;-73
2023/10/16 05:13:56;;;;;;;8.73;5.25;;;8.10;99.90;;;;;;5048191;28;20044;-72
2023/10/16 05:16:31;;;;;;;18.00;5.65;;;8.10;99.90;;;;;;5048852;28;20101;-72
2023/10/16 05:19:03;;;;;;;12.43;4.75;;;8.10;99.90;;;;;;5049911;28;20462;-73
2023/10/16 06:14:14;;;;;;;11.93;6.40;;;8.40;99.90;;;;;;4995805;28;20108;-73
2023/10/16 06:16:45;;;;;;;10.60;6.18;;;8.40;99.90;;;;;;5005541;28;20029;-73
2023/10/16 06:19:17;;;;;;;13.93;7.05;;;8.40;99.90;;;;;;5059910;28;20036;-72
2023/10/16 06:21:46;;;;;;;12.70;6.13;;;8.50;99.90;;;;;;5052759;28;20115;-73
2023/10/16 06:24:38;;;;;;;14.27;6.88;;;8.50;99.90;;;;;;5051682;28;20408;-73
2023/10/16 06:27:21;;;;;;;12.15;6.40;;;8.50;99.90;;;;;;5047943;28;20037;-73
2023/10/16 06:29:50;;;;;;;10.48;6.57;;;8.60;99.90;;;;;;5049842;28;20035;-72
2023/10/16 06:32:20;;;;;;;11.63;6.20;;;8.50;99.90;;;;;;5050456;28;20017;-72
2023/10/16 06:34:47;;;;;;;11.43;5.82;;;8.60;99.90;;;;;;5049925;28;20025;-73
2023/10/16 06:37:16;;;;;;;16.60;6.80;;;8.60;99.90;;;;;;5050318;28;20025;-73
2023/10/16 06:39:46;;;;;;;10.95;6.32;;;8.60;99.90;;;;;;5050013;28;20024;-73
2023/10/16 06:42:18;;;;;;;13.73;7.28;;;8.60;99.90;;;;;;5049000;28;20037;-73
2023/10/16 06:44:53;;;;;;;13.93;6.63;;;8.50;99.90;;;;;;5049994;28;20508;-73
2023/10/16 06:47:41;;;;;;;10.75;6.78;;;8.50;99.90;;;;;;5057683;28;20388;-73
2023/10/16 06:52:52;;;;;;;14.30;7.55;;;8.50;99.90;;;;;;5052731;28;20033;-73
2023/10/16 06:55:19;;;;;;;12.90;7.25;;;8.50;99.90;;;;;;5052051;28;20043;-73
2023/10/16 06:57:45;;;;;;;14.60;7.38;;;8.50;99.90;;;;;;5051866;28;20036;-72
2023/10/16 07:00:26;;;;;;;10.52;7.07;;;8.50;99.90;;;;;;5051245;28;20017;-72
2023/10/16 07:02:55;;;;;;;14.15;6.50;;;8.50;99.90;;;;;;5058788;28;20039;-73
2023/10/16 07:05:25;;;;;;;17.55;7.20;;;8.50;99.90;;;;;;5051977;28;20021;-72
2023/10/16 07:07:56;;;;;;;14.45;7.75;;;8.60;99.90;;;;;;5051742;28;20497;-72
2023/10/16 07:10:25;;;;;;;11.48;7.40;;;8.60;99.90;;;;;;5055105;28;20024;-72
2023/10/16 07:12:58;;;;;;;12.98;7.18;;;8.60;99.90;;;;;;5050425;28;20398;-72
2023/10/16 07:15:29;;;;;;;9.57;7.03;;;8.60;99.90;;;;;;5051686;28;20033;-73
2023/10/16 07:17:55;;;;;;;10.43;6.68;;;8.70;99.90;;;;;;5048453;28;20432;-72
2023/10/16 07:20:28;;;;;;;15.82;8.45;;;8.70;99.90;;;;;;5049642;28;20482;-72
2023/10/16 07:22:59;;;;;;;14.27;7.43;;;8.70;99.90;;;;;;5051385;28;20020;-73
2023/10/16 07:25:47;;;;;;;12.60;7.32;;;8.70;99.90;;;;;;5044623;28;20021;-72
2023/10/16 07:28:15;;;;;;;17.48;7.45;;;8.70;99.90;;;;;;5043303;28;20506;-73
2023/10/16 07:30:43;;;;;;;15.52;7.28;;;8.80;99.90;;;;;;5051274;28;20573;-72
2023/10/16 07:33:15;;;;;;;13.27;7.75;;;8.80;99.90;;;;;;5051112;28;20016;-72
2023/10/16 07:35:45;;;;;;;15.05;7.03;;;8.80;99.90;;;;;;5051050;28;20047;-72
2023/10/16 07:38:25;;;;;;;14.63;7.97;;;8.80;99.90;;;;;;5050947;28;20016;-72
2023/10/16 07:40:53;;;;;;;13.05;6.90;;;8.90;99.90;;;;;;5051130;28;20025;-72
2023/10/16 07:43:26;;;;;;;18.70;8.85;;;8.90;99.90;;;;;;5050947;28;20104;-72
2023/10/16 07:48:40;;;;;;;16.98;8.80;;;9.00;99.90;;;;;;5046876;28;20047;-72
2023/10/16 07:51:09;;;;;;;15.60;8.27;;;9.00;99.90;;;;;;5045716;28;20103;-72
2023/10/16 07:53:36;;;;;;;16.08;8.57;;;9.10;99.90;;;;;;5050455;28;20029;-72
2023/10/16 07:56:03;;;;;;;15.32;8.10;;;9.10;99.90;;;;;;5055371;28;20566;-72
2023/10/16 07:58:47;;;;;;;11.82;7.85;;;9.10;99.90;;;;;;5050599;28;20017;-73
2023/10/16 08:03:45;;;;;;;14.38;8.00;;;9.30;99.90;;;;;;5050577;28;20028;-73
2023/10/16 08:06:17;;;;;;;13.38;8.38;;;9.30;99.90;;;;;;5047918;28;20033;-72
2023/10/16 08:08:49;;;;;;;13.23;7.22;;;9.30;99.90;;;;;;5048971;28;20075;-73
2023/10/16 08:11:19;;;;;;;16.15;8.90;;;9.40;99.90;;;;;;5049071;28;20036;-72
2023/10/16 08:13:53;;;;;;;14.27;8.43;;;9.40;99.90;;;;;;5042948;28;20039;-72
2023/10/16 08:16:22;;;;;;;13.63;8.23;;;9.50;99.90;;;;;;5046607;28;20474;-72
2023/10/16 08:18:52;;;;;;;15.95;7.78;;;9.60;99.90;;;;;;5042871;28;20021;-72
2023/10/16 08:21:25;;;;;;;18.65;7.78;;;9.60;99.90;;;;;;5045004;28;20021;-72
2023/10/16 08:23:58;;;;;;;16.98;8.30;;;9.60;99.90;;;;;;5049989;28;20024;-72
2023/10/16 08:26:41;;;;;;;10.65;7.00;;;9.70;99.90;;;;;;5050303;28;20537;-72
2023/10/16 08:31:44;;;;;;;12.68;7.38;;;9.80;99.90;;;;;;5048958;28;20029;-72
2023/10/16 08:34:13;;;;;;;19.48;8.35;;;9.90;99.90;;;;;;5039094;28;20022;-72
2023/10/16 08:36:39;;;;;;;12.10;7.57;;;10.00;99.90;;;;;;5047221;28;20033;-72
2023/10/16 08:39:17;;;;;;;14.70;8.80;;;10.00;99.90;;;;;;5042718;28;20044;-72
2023/10/16 08:41:43;;;;;;;12.70;8.00;;;10.10;99.90;;;;;;5050141;28;20120;-72
2023/10/16 08:44:17;;;;;;;12.50;8.13;;;10.10;99.90;;;;;;5049761;28;20111;-73
2023/10/16 08:49:25;;;;;;;15.75;8.98;;;10.20;99.90;;;;;;5049936;28;20037;-73
2023/10/16 08:51:55;;;;;;;14.27;8.43;;;10.30;99.90;;;;;;5050085;28;20041;-73
2023/10/16 08:57:18;;;;;;;12.77;8.20;;;10.40;99.90;;;;;;5030331;28;20112;-73
2023/10/16 08:59:51;;;;;;;13.82;8.52;;;10.50;99.90;;;;;;5049662;28;20028;-73
2023/10/16 09:02:24;;;;;;;14.95;8.25;;;10.50;99.90;;;;;;5050094;28;20024;-72
2023/10/16 09:04:52;;;;;;;22.98;11.18;;;10.60;99.90;;;;;;5049485;28;20044;-72
2023/10/16 09:07:19;;;;;;;20.77;10.68;;;10.70;99.90;;;;;;5050029;28;20010;-72
2023/10/16 09:09:48;;;;;;;12.88;7.75;;;10.70;99.90;;;;;;5049209;28;20064;-72
2023/10/16 09:12:26;;;;;;;14.32;8.32;;;10.90;99.90;;;;;;5050252;28;20401;-73
2023/10/16 09:14:53;;;;;;;15.98;8.48;;;10.90;99.90;;;;;;5049488;28;20025;-72
2023/10/16 09:17:20;;;;;;;11.93;7.25;;;11.00;99.90;;;;;;5050000;28;20053;-72
2023/10/16 09:19:50;;;;;;;12.73;7.40;;;11.10;99.90;;;;;;5055436;28;20059;-73
2023/10/16 09:22:17;;;;;;;10.98;7.20;;;11.20;99.90;;;;;;5050100;28;20021;-73
2023/10/16 09:24:46;;;;;;;14.20;7.32;;;11.20;99.90;;;;;;5053201;28;20020;-73
2023/10/16 09:27:30;;;;;;;12.40;5.82;;;11.30;99.90;;;;;;5041280;28;20024;-73
2023/10/16 09:29:58;;;;;;;13.93;5.75;;;11.40;99.90;;;;;;5040944;28;20398;-72
2023/10/16 09:32:39;;;;;;;11.00;5.70;;;11.50;99.90;;;;;;5053827;28;20312;-73
2023/10/16 09:35:06;;;;;;;;;;;11.50;99.90;;;;;;5041724;28;20025;-73
2023/10/16 09:37:36;;;;;;;12.32;5.60;;;11.60;99.90;;;;;;5050487;28;19917;-73
2023/10/16 09:43:05;;;;;;;10.55;5.63;;;11.70;99.90;;;;;;5053588;28;20048;-73
2023/10/16 09:45:35;;;;;;;8.73;4.32;;;11.80;99.90;;;;;;5053159;28;20036;-73
2023/10/16 09:48:13;;;;;;;9.98;5.45;;;11.90;99.90;;;;;;5051847;28;20036;-73
2023/10/16 09:50:42;;;;;;;10.63;4.70;;;11.90;99.90;;;;;;5053466;28;20048;-73
2023/10/16 09:53:09;;;;;;;7.80;4.60;;;12.00;99.90;;;;;;5053653;28;20490;-72
2023/10/16 09:55:38;;;;;;;9.15;4.47;;;12.00;99.90;;;;;;5051718;28;20052;-73
2023/10/16 09:58:06;;;;;;;8.70;4.03;;;12.10;99.90;;;;;;5053603;28;20039;-73
2023/10/16 10:00:32;;;;;;;10.02;3.30;;;12.10;99.90;;;;;;5053085;28;20032;-73
2023/10/16 10:03:09;;;;;;;8.90;3.10;;;12.20;99.90;;;;;;5053828;28;20021;-73
2023/10/16 10:09:20;;;;;;;7.13;3.03;;;12.20;99.90;;;;;;5053350;28;20094;-72
2023/10/16 10:12:13;;;;;;;6.28;2.55;;;12.30;99.90;;;;;;5053199;28;20494;-74
2023/10/16 10:14:50;;;;;;;5.78;3.03;;;12.40;99.90;;;;;;5051110;28;20021;-72
2023/10/16 10:17:20;;;;;;;7.20;2.40;;;12.40;99.90;;;;;;5051762;28;20163;-73
2023/10/16 10:19:55;;;;;;;6.60;1.73;;;12.50;99.90;;;;;;5052803;28;20032;-73
2023/10/16 10:22:27;;;;;;;3.55;1.65;;;12.60;99.90;;;;;;5053114;28;20028;-73
2023/10/16 10:25:24;;;;;;;7.65;2.03;;;12.70;99.90;;;;;;5052420;28;20044;-73
2023/10/16 10:27:54;;;;;;;5.10;1.42;;;12.80;99.90;;;;;;5051170;28;20496;-73
2023/10/16 10:30:26;;;;;;;3.03;1.45;;;12.90;99.90;;;;;;5052524;28;20025;-73
2023/10/16 10:32:53;;;;;;;2.72;1.35;;;12.90;99.90;;;;;;5052863;28;20533;-72
2023/10/16 10:35:26;;;;;;;8.13;1.75;;;13.00;99.90;;;;;;5051170;28;20032;-72
2023/10/16 10:38:07;;;;;;;4.03;1.38;;;13.10;99.90;;;;;;5052689;28;20029;-73
2023/10/16 10:40:33;;;;;;;4.30;1.30;;;13.20;99.90;;;;;;5048466;28;20017;-73
2023/10/16 10:43:02;;;;;;;3.33;1.23;;;13.30;99.90;;;;;;5052450;28;20071;-72
2023/10/16 10:45:35;;;;;;;3.90;1.40;;;13.30;99.90;;;;;;5051929;28;20435;-73
2023/10/16 10:48:10;;;;;;;10.82;1.88;;;13.40;99.90;;;;;;5049878;28;20386;-72
2023/10/16 10:50:38;;;;;;;3.45;1.25;;;13.40;99.90;;;;;;5042076;28;20025;-73
2023/10/16 10:53:14;;;;;;;10.32;1.75;;;13.50;99.90;;;;;;5052394;28;20033;-72
2023/10/16 10:55:58;;;;;;;8.50;1.50;;;13.60;99.90;;;;;;5051798;28;20501;-73
2023/10/16 10:58:37;;;;;;;5.47;1.65;;;13.60;99.90;;;;;;5050846;28;20375;-73
2023/10/16 11:03:48;;;;;;;4.82;1.30;;;13.70;99.90;;;;;;5047366;28;20072;-71
2023/10/16 11:06:43;;;;;;;7.25;2.15;;;13.80;99.90;;;;;;5046884;28;20470;-72
2023/10/16 11:09:13;;;;;;;4.95;1.42;;;13.80;99.90;;;;;;5051571;28;20017;-71
2023/10/16 11:11:44;;;;;;;4.03;1.55;;;13.80;99.90;;;;;;5052285;28;20017;-72
2023/10/16 11:14:12;;;;;;;4.03;1.50;;;13.80;99.90;;;;;;5050595;28;20481;-71
2023/10/16 11:16:49;;;;;;;3.35;1.25;;;13.90;99.90;;;;;;5050456;28;20033;-72
2023/10/16 11:19:28;;;;;;;4.32;1.35;;;13.90;99.90;;;;;;5050152;28;20103;-72
2023/10/16 11:21:56;;;;;;;3.03;1.40;;;14.00;99.90;;;;;;5041170;28;20036;-73
2023/10/16 11:24:24;;;;;;;4.65;1.55;;;14.10;99.90;;;;;;5048930;28;20091;-71
2023/10/16 11:26:52;;;;;;;4.18;1.00;;;14.20;99.90;;;;;;5051577;28;20028;-71
2023/10/16 11:29:19;;;;;;;4.90;1.00;;;14.30;99.90;;;;;;5051148;28;20033;-71
2023/10/16 11:31:45;;;;;;;4.07;1.00;;;14.30;99.90;;;;;;5051609;28;20092;-72
2023/10/16 11:34:14;;;;;;;5.82;1.02;;;14.40;99.90;;;;;;5049779;28;20123;-73
2023/10/16 11:36:40;;;;;;;4.05;0.98;;;14.40;99.90;;;;;;5053375;28;20059;-72
2023/10/16 11:39:07;;;;;;;3.08;0.75;;;14.40;99.90;;;;;;5047676;28;20037;-73
2023/10/16 11:41:36;;;;;;;3.67;1.00;;;14.40;99.90;;;;;;5051140;28;20045;-73
2023/10/16 11:44:13;;;;;;;2.30;0.93;;;14.30;99.90;;;;;;5050727;28;20509;-72
2023/10/16 11:46:44;;;;;;;3.63;0.90;;;14.30;99.90;;;;;;5051112;28;20017;-72
2023/10/16 11:51:48;;;;;;;6.63;1.48;;;14.30;99.90;;;;;;5051337;28;20029;-73
2023/10/16 11:54:22;;;;;;;4.60;1.10;;;14.30;99.90;;;;;;5050797;28;20474;-72
2023/10/16 11:57:07;;;;;;;7.00;1.17;;;14.30;99.90;;;;;;5050943;28;20096;-73
2023/10/16 11:59:33;;;;;;;2.67;0.77;;;14.30;99.90;;;;;;5049088;28;20611;-73
2023/10/16 12:02:10;;;;;;;5.57;1.02;;;14.40;99.90;;;;;;5047457;28;20104;-73
2023/10/16 12:04:37;;;;;;;4.32;1.10;;;14.40;99.90;;;;;;5050574;28;20036;-73
2023/10/16 12:07:03;;;;;;;4.18;1.17;;;14.40;99.90;;;;;;5050851;28;20429;-73
2023/10/16 12:09:36;;;;;;;4.55;1.02;;;14.40;99.90;;;;;;5050580;28;20024;-73
2023/10/16 12:12:06;;;;;;;5.50;1.23;;;14.50;99.90;;;;;;5050753;28;20500;-73
2023/10/16 12:14:37;;;;;;;4.82;1.30;;;14.50;99.90;;;;;;5048861;28;20025;-72
2023/10/16 12:17:06;;;;;;;3.97;1.38;;;14.50;99.90;;;;;;5051095;28;20442;-72
2023/10/16 12:19:34;;;;;;;5.10;1.00;;;14.50;99.90;;;;;;5050166;28;20071;-73
2023/10/16 12:22:00;;;;;;;5.55;1.40;;;14.60;99.90;;;;;;5050798;28;20040;-73
2023/10/16 12:24:26;;;;;;;3.53;0.90;;;14.60;99.90;;;;;;5049961;28;20481;-73
2023/10/16 12:26:52;;;;;;;5.47;1.38;;;14.60;99.90;;;;;;5049148;28;20166;-72
2023/10/16 12:29:18;;;;;;;4.03;0.90;;;14.60;99.90;;;;;;5050305;28;20508;-73
2023/10/16 12:31:44;;;;;;;4.18;1.17;;;14.60;99.90;;;;;;5050395;28;20028;-72
2023/10/16 12:34:11;;;;;;;4.43;1.00;;;14.70;99.90;;;;;;5048724;28;20025;-73
2023/10/16 12:36:43;;;;;;;4.57;1.17;;;14.60;99.90;;;;;;5050181;28;20029;-72
2023/10/16 12:39:24;;;;;;;6.10;1.08;;;14.60;99.90;;;;;;5050148;28;20018;-73
2023/10/16 12:41:56;;;;;;;4.75;1.20;;;14.60;99.90;;;;;;5050418;28;20174;-73
2023/10/16 12:44:23;;;;;;;4.93;1.30;;;14.60;99.90;;;;;;5049972;28;20021;-72
2023/10/16 12:46:52;;;;;;;3.85;1.55;;;14.60;99.90;;;;;;5050352;28;20401;-72
2023/10/16 12:49:18;;;;;;;5.68;1.10;;;14.60;99.90;;;;;;5049895;28;20541;-72
2023/10/16 12:51:43;;;;;;;3.22;0.88;;;14.60;99.90;;;;;;5049995;28;20115;-73
2023/10/16 12:54:12;;;;;;;4.32;0.88;;;14.60;99.90;;;;;;5049646;28;20017;-72
2023/10/16 12:56:43;;;;;;;5.63;0.77;;;14.60;99.90;;;;;;5042010;28;20025;-73
2023/10/16 12:59:10;;;;;;;2.63;0.95;;;14.60;99.90;;;;;;5049580;28;20014;-73
2023/10/16 13:01:36;;;;;;;3.95;1.00;;;14.60;99.90;;;;;;5050146;28;20032;-73
2023/10/16 13:04:06;;;;;;;3.95;1.08;;;14.60;99.90;;;;;;5050045;28;20021;-73
2023/10/16 13:06:32;;;;;;;3.47;1.10;;;14.60;99.90;;;;;;5048953;28;20036;-73
2023/10/16 13:09:00;;;;;;;5.70;1.00;;;14.60;99.90;;;;;;5047135;28;20026;-73
2023/10/16 13:11:27;;;;;;;2.08;0.70;;;14.60;99.90;;;;;;5040033;28;20382;-73
2023/10/16 13:13:55;;;;;;;6.53;1.50;;;14.60;99.90;;;;;;5049053;28;20021;-72
2023/10/16 13:16:24;;;;;;;3.15;0.75;;;14.60;99.90;;;;;;5049478;28;20484;-72
2023/10/16 13:19:00;;;;;;;2.97;1.20;;;14.60;99.90;;;;;;5059232;28;20448;-72
2023/10/16 13:21:33;;;;;;;4.00;0.85;;;14.70;99.90;;;;;;5050021;28;20020;-72
2023/10/16 13:24:19;;;;;;;6.03;0.90;;;14.70;99.90;;;;;;5043554;28;20021;-73
2023/10/16 13:26:47;;;;;;;4.60;0.98;;;14.70;99.90;;;;;;5045671;28;20033;-73
2023/10/16 13:29:13;;;;;;;5.05;1.00;;;14.70;99.90;;;;;;5049303;28;20466;-73
2023/10/16 13:31:46;;;;;;;3.70;0.70;;;14.80;99.90;;;;;;5049851;28;20025;-73
2023/10/16 13:34:17;;;;;;;5.13;0.90;;;14.80;99.90;;;;;;5049492;28;20040;-71
2023/10/16 13:36:56;;;;;;;5.03;1.00;;;14.80;99.90;;;;;;5050169;28;20370;-72
2023/10/16 13:39:24;;;;;;;3.20;1.10;;;14.90;99.90;;;;;;5048043;28;20013;-73
2023/10/16 13:41:50;;;;;;;6.00;1.15;;;14.90;99.90;;;;;;5049227;28;20037;-72
2023/10/16 13:44:23;;;;;;;5.35;1.20;;;14.90;99.90;;;;;;5052511;28;20517;-73
2023/10/16 13:46:49;;;;;;;6.25;1.10;;;14.90;99.90;;;;;;5029966;28;20033;-73
2023/10/16 13:49:16;;;;;;;4.65;1.00;;;14.90;99.90;;;;;;5029809;28;20371;-71
2023/10/16 13:51:42;;;;;;;4.00;0.93;;;14.90;99.90;;;;;;5034440;28;20025;-73
2023/10/16 13:54:12;;;;;;;3.58;1.08;;;14.80;99.90;;;;;;5049745;28;20017;-73
2023/10/16 13:56:46;;;;;;;4.53;1.02;;;14.80;99.90;;;;;;5041288;28;20100;-73
2023/10/16 13:59:13;;;;;;;7.53;1.00;;;14.80;99.90;;;;;;5056873;28;20031;-72
2023/10/16 14:01:39;;;;;;;2.58;0.75;;;14.80;99.90;;;;;;5049227;28;20489;-72
2023/10/16 14:04:11;;;;;;;2.30;0.80;;;14.80;99.90;;;;;;5054415;28;20024;-73
2023/10/16 14:06:40;;;;;;;2.22;1.10;;;14.80;99.90;;;;;;5049450;28;20025;-73
2023/10/16 14:09:11;;;;;;;3.22;1.05;;;14.80;99.90;;;;;;5061585;28;20024;-73
2023/10/16 14:11:47;;;;;;;2.92;0.70;;;14.70;99.90;;;;;;5047636;28;20064;-73
2023/10/16 14:14:20;;;;;;;5.22;1.33;;;14.70;99.90;;;;;;5053073;28;20017;-73
2023/10/16 14:16:50;;;;;;;5.45;1.00;;;14.70;99.90;;;;;;5052808;28;20497;-72
2023/10/16 14:19:17;;;;;;;4.50;1.08;;;14.70;99.90;;;;;;5053232;28;20100;-73
2023/10/16 14:21:43;;;;;;;3.90;1.15;;;14.70;99.90;;;;;;5052677;28;20025;-73
2023/10/16 14:24:17;;;;;;;2.58;0.70;;;14.70;99.90;;;;;;5051129;28;20528;-72
2023/10/16 14:26:49;;;;;;;5.03;0.95;;;14.70;99.90;;;;;;5056487;28;20041;-73
2023/10/16 14:29:16;;;;;;;4.18;0.88;;;14.70;99.90;;;;;;5052853;28;20025;-73
2023/10/16 14:31:46;;;;;;;3.75;1.00;;;14.70;99.90;;;;;;5052718;28;20033;-72
2023/10/16 14:34:17;;;;;;;7.43;1.10;;;14.70;99.90;;;;;;5052869;28;20342;-74
2023/10/16 14:36:46;;;;;;;3.13;0.77;;;14.70;99.90;;;;;;5052698;28;20029;-73
2023/10/16 14:39:12;;;;;;;5.22;1.00;;;14.70;99.90;;;;;;5052891;28;20021;-73
2023/10/16 14:41:41;;;;;;;4.35;1.08;;;14.70;99.90;;;;;;5052230;28;20485;-72
2023/10/16 14:44:09;;;;;;;4.63;0.90;;;14.70;99.90;;;;;;5052487;28;20021;-73
2023/10/16 14:46:36;;;;;;;2.70;0.80;;;14.70;99.90;;;;;;5052073;28;20066;-73